sensor_id;sensor_type;location;lat;lon;timestamp;temperature;humidity
46356;DHT22;32066;49.474;11.106;2023-08-30T00:01:11;16.20;99.90
46356;DHT22;32066;49.474;11.106;2023-08-30T00:03:40;16.20;99.90
46356;DHT22;32066;49.474;11.106;2023-08-30T00:06:09;16.00;99.90
46356;DHT22;32066;49.474;11.106;2023-08-30T00:08:37;16.00;99.90
46356;DHT22;32066;49.474;11.106;2023-08-30T00:11:08;16.10;99.90
46356;DHT22;32066;49.474;11.106;2023-08-30T00:13:37;16.00;99.90
46356;DHT22;32066;49.474;11.106;2023-08-30T00:16:06;16.10;99.90
46356;DHT22;32066;49.474;11.106;2023-08-30T00:18:35;16.00;99.90
46356;DHT22;32066;49.474;11.106;2023-08-30T00:21:03;16.00;99.90
46356;DHT22;32066;49.474;11.106;2023-08-30T00:23:32;16.00;99.90
46356;DHT22;32066;49.474;11.106;2023-08-30T00:26:01;16.00;99.90
46356;DHT22;32066;49.474;11.106;2023-08-30T00:28:32;16.00;99.90
46356;DHT22;32066;49.474;11.106;2023-08-30T00:31:01;16.00;99.90
46356;DHT22;32066;49.474;11.106;2023-08-30T00:33:29;16.00;99.90
46356;DHT22;32066;49.474;11.106;2023-08-30T00:35:58;16.00;99.90
46356;DHT22;32066;49.474;11.106;2023-08-30T00:38:28;15.90;99.90
46356;DHT22;32066;49.474;11.106;2023-08-30T00:40:56;15.90;99.90
46356;DHT22;32066;49.474;11.106;2023-08-30T00:43:25;16.00;99.90
46356;DHT22;32066;49.474;11.106;2023-08-30T00:45:56;15.90;99.90
46356;DHT22;32066;49.474;11.106;2023-08-30T00:48:25;15.90;99.90
46356;DHT22;32066;49.474;11.106;2023-08-30T00:50:52;15.90;99.90
46356;DHT22;32066;49.474;11.106;2023-08-30T00:53:20;15.90;99.90
46356;DHT22;32066;49.474;11.106;2023-08-30T00:55:49;15.80;99.90
46356;DHT22;32066;49.474;11.106;2023-08-30T00:58:18;15.80;99.90
46356;DHT22;32066;49.474;11.106;2023-08-30T01:00:47;15.80;99.90
46356;DHT22;32066;49.474;11.106;2023-08-30T01:03:19;15.90;99.90
46356;DHT22;32066;49.474;11.106;2023-08-30T01:05:48;15.90;99.90
46356;DHT22;32066;49.474;11.106;2023-08-30T01:08:16;15.80;99.90
46356;DHT22;32066;49.474;11.106;2023-08-30T01:10:53;15.80;99.90
46356;DHT22;32066;49.474;11.106;2023-08-30T01:13:25;15.80;99.90
46356;DHT22;32066;49.474;11.106;2023-08-30T01:15:56;15.70;99.90
46356;DHT22;32066;49.474;11.106;2023-08-30T01:18:32;15.70;99.90
46356;DHT22;32066;49.474;11.106;2023-08-30T01:21:02;15.70;99.90
46356;DHT22;32066;49.474;11.106;2023-08-30T01:23:42;15.70;99.90
46356;DHT22;32066;49.474;11.106;2023-08-30T01:26:23;15.60;99.90
46356;DHT22;32066;49.474;11.106;2023-08-30T01:29:00;15.70;99.90
46356;DHT22;32066;49.474;11.106;2023-08-30T01:31:32;15.70;99.90
46356;DHT22;32066;49.474;11.106;2023-08-30T01:34:02;15.60;99.90
46356;DHT22;32066;49.474;11.106;2023-08-30T01:36:31;15.60;99.90
46356;DHT22;32066;49.474;11.106;2023-08-30T01:39:01;15.60;99.90
46356;DHT22;32066;49.474;11.106;2023-08-30T01:41:30;15.50;99.90
46356;DHT22;32066;49.474;11.106;2023-08-30T01:44:03;15.60;99.90
46356;DHT22;32066;49.474;11.106;2023-08-30T01:46:33;15.60;99.90
46356;DHT22;32066;49.474;11.106;2023-08-30T01:49:03;15.70;99.90
46356;DHT22;32066;49.474;11.106;2023-08-30T01:51:32;15.60;99.90
46356;DHT22;32066;49.474;11.106;2023-08-30T01:54:02;15.70;99.90
46356;DHT22;32066;49.474;11.106;2023-08-30T01:56:32;15.60;99.90
46356;DHT22;32066;49.474;11.106;2023-08-30T01:59:03;15.70;99.90
46356;DHT22;32066;49.474;11.106;2023-08-30T02:01:32;15.70;99.90
46356;DHT22;32066;49.474;11.106;2023-08-30T02:04:01;15.70;99.90
46356;DHT22;32066;49.474;11.106;2023-08-30T02:06:35;15.60;99.90
46356;DHT22;32066;49.474;11.106;2023-08-30T02:09:12;15.70;99.90
46356;DHT22;32066;49.474;11.106;2023-08-30T02:11:44;15.70;99.90
46356;DHT22;32066;49.474;11.106;2023-08-30T02:14:18;15.60;99.90
46356;DHT22;32066;49.474;11.106;2023-08-30T02:16:49;15.60;99.90
46356;DHT22;32066;49.474;11.106;2023-08-30T02:19:18;15.60;99.90
46356;DHT22;32066;49.474;11.106;2023-08-30T02:21:48;15.60;99.90
46356;DHT22;32066;49.474;11.106;2023-08-30T02:24:17;15.60;99.90
46356;DHT22;32066;49.474;11.106;2023-08-30T02:26:46;15.60;99.90
46356;DHT22;32066;49.474;11.106;2023-08-30T02:29:17;15.60;99.90
46356;DHT22;32066;49.474;11.106;2023-08-30T02:31:46;15.60;99.90
46356;DHT22;32066;49.474;11.106;2023-08-30T02:34:14;15.60;99.90
46356;DHT22;32066;49.474;11.106;2023-08-30T02:36:43;15.60;99.90
46356;DHT22;32066;49.474;11.106;2023-08-30T02:39:14;15.60;99.90
46356;DHT22;32066;49.474;11.106;2023-08-30T02:41:43;15.60;99.90
46356;DHT22;32066;49.474;11.106;2023-08-30T02:44:12;15.70;99.90
46356;DHT22;32066;49.474;11.106;2023-08-30T02:46:44;15.60;99.90
46356;DHT22;32066;49.474;11.106;2023-08-30T02:49:12;15.60;99.90
46356;DHT22;32066;49.474;11.106;2023-08-30T02:51:41;15.60;99.90
46356;DHT22;32066;49.474;11.106;2023-08-30T02:54:10;15.60;99.90
46356;DHT22;32066;49.474;11.106;2023-08-30T02:56:40;15.50;99.90
46356;DHT22;32066;49.474;11.106;2023-08-30T02:59:08;15.60;99.90
46356;DHT22;32066;49.474;11.106;2023-08-30T03:01:38;15.60;99.90
46356;DHT22;32066;49.474;11.106;2023-08-30T03:04:10;15.60;99.90
46356;DHT22;32066;49.474;11.106;2023-08-30T03:06:40;15.70;99.90
46356;DHT22;32066;49.474;11.106;2023-08-30T03:09:09;15.60;99.90
46356;DHT22;32066;49.474;11.106;2023-08-30T03:11:37;15.60;99.90
46356;DHT22;32066;49.474;11.106;2023-08-30T03:14:06;15.60;99.90
46356;DHT22;32066;49.474;11.106;2023-08-30T03:16:35;15.60;99.90
46356;DHT22;32066;49.474;11.106;2023-08-30T03:19:03;15.50;99.90
46356;DHT22;32066;49.474;11.106;2023-08-30T03:21:34;15.60;99.90
46356;DHT22;32066;49.474;11.106;2023-08-30T03:24:04;15.50;99.90
46356;DHT22;32066;49.474;11.106;2023-08-30T03:26:35;15.50;99.90
46356;DHT22;32066;49.474;11.106;2023-08-30T03:29:03;15.60;99.90
46356;DHT22;32066;49.474;11.106;2023-08-30T03:31:32;15.60;99.90
46356;DHT22;32066;49.474;11.106;2023-08-30T03:34:01;15.50;99.90
46356;DHT22;32066;49.474;11.106;2023-08-30T03:36:30;15.50;99.90
46356;DHT22;32066;49.474;11.106;2023-08-30T03:39:01;15.50;99.90
46356;DHT22;32066;49.474;11.106;2023-08-30T03:41:30;15.50;99.90
46356;DHT22;32066;49.474;11.106;2023-08-30T03:44:00;15.50;99.90
46356;DHT22;32066;49.474;11.106;2023-08-30T03:46:29;15.40;99.90
46356;DHT22;32066;49.474;11.106;2023-08-30T03:48:59;15.40;99.90
46356;DHT22;32066;49.474;11.106;2023-08-30T03:51:27;15.40;99.90
46356;DHT22;32066;49.474;11.106;2023-08-30T03:53:56;15.30;99.90
46356;DHT22;32066;49.474;11.106;2023-08-30T03:56:27;15.30;99.90
46356;DHT22;32066;49.474;11.106;2023-08-30T03:58:56;15.30;99.90
46356;DHT22;32066;49.474;11.106;2023-08-30T04:01:25;15.30;99.90
46356;DHT22;32066;49.474;11.106;2023-08-30T04:03:53;15.30;99.90
46356;DHT22;32066;49.474;11.106;2023-08-30T04:06:22;15.30;99.90
46356;DHT22;32066;49.474;11.106;2023-08-30T04:08:51;15.30;99.90
46356;DHT22;32066;49.474;11.106;2023-08-30T04:11:19;15.30;99.90
46356;DHT22;32066;49.474;11.106;2023-08-30T04:13:51;15.30;99.90
46356;DHT22;32066;49.474;11.106;2023-08-30T04:16:20;15.30;99.90
46356;DHT22;32066;49.474;11.106;2023-08-30T04:18:49;15.30;99.90
46356;DHT22;32066;49.474;11.106;2023-08-30T04:21:18;15.20;99.90
46356;DHT22;32066;49.474;11.106;2023-08-30T04:23:46;15.20;99.90
46356;DHT22;32066;49.474;11.106;2023-08-30T04:26:15;15.20;99.90
46356;DHT22;32066;49.474;11.106;2023-08-30T04:28:43;15.20;99.90
46356;DHT22;32066;49.474;11.106;2023-08-30T04:31:15;15.20;99.90
46356;DHT22;32066;49.474;11.106;2023-08-30T04:33:43;15.20;99.90
46356;DHT22;32066;49.474;11.106;2023-08-30T04:36:12;15.20;99.90
46356;DHT22;32066;49.474;11.106;2023-08-30T04:38:41;15.20;99.90
46356;DHT22;32066;49.474;11.106;2023-08-30T04:41:09;15.20;99.90
46356;DHT22;32066;49.474;11.106;2023-08-30T04:43:38;15.20;99.90
46356;DHT22;32066;49.474;11.106;2023-08-30T04:46:07;15.20;99.90
46356;DHT22;32066;49.474;11.106;2023-08-30T04:48:38;15.20;99.90
46356;DHT22;32066;49.474;11.106;2023-08-30T04:51:08;15.20;99.90
46356;DHT22;32066;49.474;11.106;2023-08-30T04:53:37;15.30;99.90
46356;DHT22;32066;49.474;11.106;2023-08-30T04:56:12;15.30;99.90
46356;DHT22;32066;49.474;11.106;2023-08-30T04:58:43;15.30;99.90
46356;DHT22;32066;49.474;11.106;2023-08-30T05:01:13;15.30;99.90
46356;DHT22;32066;49.474;11.106;2023-08-30T05:03:47;15.40;99.90
46356;DHT22;32066;49.474;11.106;2023-08-30T05:06:17;15.40;99.90
46356;DHT22;32066;49.474;11.106;2023-08-30T05:08:45;15.40;99.90
46356;DHT22;32066;49.474;11.106;2023-08-30T05:11:14;15.40;99.90
46356;DHT22;32066;49.474;11.106;2023-08-30T05:13:43;15.30;99.90
46356;DHT22;32066;49.474;11.106;2023-08-30T05:16:13;15.40;99.90
46356;DHT22;32066;49.474;11.106;2023-08-30T05:18:41;15.40;99.90
46356;DHT22;32066;49.474;11.106;2023-08-30T05:21:14;15.50;99.90
46356;DHT22;32066;49.474;11.106;2023-08-30T05:23:43;15.50;99.90
46356;DHT22;32066;49.474;11.106;2023-08-30T05:26:13;15.50;99.90
46356;DHT22;32066;49.474;11.106;2023-08-30T05:28:42;15.60;99.90
46356;DHT22;32066;49.474;11.106;2023-08-30T05:31:11;15.60;99.90
46356;DHT22;32066;49.474;11.106;2023-08-30T05:34:18;15.60;99.90
46356;DHT22;32066;49.474;11.106;2023-08-30T05:37:16;15.60;99.90
46356;DHT22;32066;49.474;11.106;2023-08-30T05:40:02;15.60;99.90
46356;DHT22;32066;49.474;11.106;2023-08-30T05:42:31;15.70;99.90
46356;DHT22;32066;49.474;11.106;2023-08-30T05:45:00;15.70;99.90
46356;DHT22;32066;49.474;11.106;2023-08-30T05:47:29;15.70;99.90
46356;DHT22;32066;49.474;11.106;2023-08-30T05:49:58;15.80;99.90
46356;DHT22;32066;49.474;11.106;2023-08-30T05:52:30;15.70;99.90
46356;DHT22;32066;49.474;11.106;2023-08-30T05:54:58;15.70;99.90
46356;DHT22;32066;49.474;11.106;2023-08-30T05:57:27;15.70;99.90
46356;DHT22;32066;49.474;11.106;2023-08-30T05:59:59;15.70;99.90
46356;DHT22;32066;49.474;11.106;2023-08-30T06:02:27;15.80;99.90
46356;DHT22;32066;49.474;11.106;2023-08-30T06:04:56;15.80;99.90
46356;DHT22;32066;49.474;11.106;2023-08-30T06:07:25;15.80;99.90
46356;DHT22;32066;49.474;11.106;2023-08-30T06:09:56;15.90;99.90
46356;DHT22;32066;49.474;11.106;2023-08-30T06:12:24;15.90;99.90
46356;DHT22;32066;49.474;11.106;2023-08-30T06:14:53;15.90;99.90
46356;DHT22;32066;49.474;11.106;2023-08-30T06:17:22;15.90;99.90
46356;DHT22;32066;49.474;11.106;2023-08-30T06:19:50;16.00;99.90
46356;DHT22;32066;49.474;11.106;2023-08-30T06:22:19;16.00;99.90
46356;DHT22;32066;49.474;11.106;2023-08-30T06:24:48;16.10;99.90
46356;DHT22;32066;49.474;11.106;2023-08-30T06:27:19;16.10;99.90
46356;DHT22;32066;49.474;11.106;2023-08-30T06:29:48;16.10;99.90
46356;DHT22;32066;49.474;11.106;2023-08-30T06:32:16;16.10;99.90
46356;DHT22;32066;49.474;11.106;2023-08-30T06:34:45;16.10;99.90
46356;DHT22;32066;49.474;11.106;2023-08-30T06:37:13;16.20;99.90
46356;DHT22;32066;49.474;11.106;2023-08-30T06:39:42;16.20;99.90
46356;DHT22;32066;49.474;11.106;2023-08-30T06:42:11;16.30;99.90
46356;DHT22;32066;49.474;11.106;2023-08-30T06:44:43;16.30;99.90
46356;DHT22;32066;49.474;11.106;2023-08-30T06:47:11;16.30;99.90
46356;DHT22;32066;49.474;11.106;2023-08-30T06:49:40;16.30;99.90
46356;DHT22;32066;49.474;11.106;2023-08-30T06:52:09;16.40;99.90
46356;DHT22;32066;49.474;11.106;2023-08-30T06:54:37;16.40;99.90
46356;DHT22;32066;49.474;11.106;2023-08-30T06:57:06;16.40;99.90
46356;DHT22;32066;49.474;11.106;2023-08-30T06:59:35;16.40;99.90
46356;DHT22;32066;49.474;11.106;2023-08-30T07:02:06;16.40;99.90
46356;DHT22;32066;49.474;11.106;2023-08-30T07:04:35;16.40;99.90
46356;DHT22;32066;49.474;11.106;2023-08-30T07:07:04;16.50;99.90
46356;DHT22;32066;49.474;11.106;2023-08-30T07:09:32;16.50;99.90
46356;DHT22;32066;49.474;11.106;2023-08-30T07:12:01;16.60;99.90
46356;DHT22;32066;49.474;11.106;2023-08-30T07:14:30;16.60;99.90
46356;DHT22;32066;49.474;11.106;2023-08-30T07:16:59;16.70;99.90
46356;DHT22;32066;49.474;11.106;2023-08-30T07:19:30;16.70;99.90
46356;DHT22;32066;49.474;11.106;2023-08-30T07:21:59;16.60;99.90
46356;DHT22;32066;49.474;11.106;2023-08-30T07:24:27;16.60;99.90
46356;DHT22;32066;49.474;11.106;2023-08-30T07:26:56;16.70;99.90
46356;DHT22;32066;49.474;11.106;2023-08-30T07:29:24;16.70;99.90
46356;DHT22;32066;49.474;11.106;2023-08-30T07:31:53;16.70;99.90
46356;DHT22;32066;49.474;11.106;2023-08-30T07:34:22;16.80;99.90
46356;DHT22;32066;49.474;11.106;2023-08-30T07:36:54;16.80;99.90
46356;DHT22;32066;49.474;11.106;2023-08-30T07:39:23;16.80;99.90
46356;DHT22;32066;49.474;11.106;2023-08-30T07:41:52;16.70;99.90
46356;DHT22;32066;49.474;11.106;2023-08-30T07:44:20;16.80;99.90
46356;DHT22;32066;49.474;11.106;2023-08-30T07:46:49;16.80;99.90
46356;DHT22;32066;49.474;11.106;2023-08-30T07:49:18;16.80;99.90
46356;DHT22;32066;49.474;11.106;2023-08-30T07:51:47;16.80;99.90
46356;DHT22;32066;49.474;11.106;2023-08-30T07:54:18;16.90;99.90
46356;DHT22;32066;49.474;11.106;2023-08-30T07:56:47;16.80;99.90
46356;DHT22;32066;49.474;11.106;2023-08-30T07:59:15;16.80;99.90
46356;DHT22;32066;49.474;11.106;2023-08-30T08:01:44;16.90;99.90
46356;DHT22;32066;49.474;11.106;2023-08-30T08:04:12;16.80;99.90
46356;DHT22;32066;49.474;11.106;2023-08-30T08:06:41;16.90;99.90
46356;DHT22;32066;49.474;11.106;2023-08-30T08:09:10;16.90;99.90
46356;DHT22;32066;49.474;11.106;2023-08-30T08:11:41;17.00;99.90
46356;DHT22;32066;49.474;11.106;2023-08-30T08:14:10;17.00;99.90
46356;DHT22;32066;49.474;11.106;2023-08-30T08:16:39;17.10;99.90
46356;DHT22;32066;49.474;11.106;2023-08-30T08:19:08;17.10;99.90
46356;DHT22;32066;49.474;11.106;2023-08-30T08:21:38;17.20;99.90
46356;DHT22;32066;49.474;11.106;2023-08-30T08:24:07;17.20;99.90
46356;DHT22;32066;49.474;11.106;2023-08-30T08:26:35;17.30;99.90
46356;DHT22;32066;49.474;11.106;2023-08-30T08:29:07;17.40;99.90
46356;DHT22;32066;49.474;11.106;2023-08-30T08:31:35;17.40;99.90
46356;DHT22;32066;49.474;11.106;2023-08-30T08:34:09;17.40;99.90
46356;DHT22;32066;49.474;11.106;2023-08-30T08:36:39;17.50;99.90
46356;DHT22;32066;49.474;11.106;2023-08-30T08:39:08;17.60;99.90
46356;DHT22;32066;49.474;11.106;2023-08-30T08:41:39;17.60;99.80
46356;DHT22;32066;49.474;11.106;2023-08-30T08:44:12;17.70;99.90
46356;DHT22;32066;49.474;11.106;2023-08-30T08:46:41;17.70;99.90
46356;DHT22;32066;49.474;11.106;2023-08-30T08:49:12;17.60;99.80
46356;DHT22;32066;49.474;11.106;2023-08-30T08:51:43;17.70;99.90
46356;DHT22;32066;49.474;11.106;2023-08-30T08:54:13;17.90;99.90
46356;DHT22;32066;49.474;11.106;2023-08-30T08:56:42;18.00;99.90
46356;DHT22;32066;49.474;11.106;2023-08-30T08:59:14;18.30;99.90
46356;DHT22;32066;49.474;11.106;2023-08-30T09:01:43;18.40;99.60
46356;DHT22;32066;49.474;11.106;2023-08-30T09:04:12;18.60;99.00
46356;DHT22;32066;49.474;11.106;2023-08-30T09:06:40;18.70;98.50
46356;DHT22;32066;49.474;11.106;2023-08-30T09:09:09;18.80;98.50
46356;DHT22;32066;49.474;11.106;2023-08-30T09:11:38;18.90;97.90
46356;DHT22;32066;49.474;11.106;2023-08-30T09:14:08;19.00;97.40
46356;DHT22;32066;49.474;11.106;2023-08-30T09:16:40;19.00;97.30
46356;DHT22;32066;49.474;11.106;2023-08-30T09:19:08;19.00;96.60
46356;DHT22;32066;49.474;11.106;2023-08-30T09:21:37;19.00;96.50
46356;DHT22;32066;49.474;11.106;2023-08-30T09:24:07;19.00;95.80
46356;DHT22;32066;49.474;11.106;2023-08-30T09:26:35;19.00;96.40
46356;DHT22;32066;49.474;11.106;2023-08-30T09:29:05;19.00;96.60
46356;DHT22;32066;49.474;11.106;2023-08-30T09:31:34;18.80;96.90
46356;DHT22;32066;49.474;11.106;2023-08-30T09:34:06;18.80;96.90
46356;DHT22;32066;49.474;11.106;2023-08-30T09:36:37;18.90;97.00
46356;DHT22;32066;49.474;11.106;2023-08-30T09:39:07;19.00;97.00
46356;DHT22;32066;49.474;11.106;2023-08-30T09:41:37;19.10;96.10
46356;DHT22;32066;49.474;11.106;2023-08-30T09:44:09;19.10;95.70
46356;DHT22;32066;49.474;11.106;2023-08-30T09:46:42;19.10;95.30
46356;DHT22;32066;49.474;11.106;2023-08-30T09:49:14;19.10;94.50
46356;DHT22;32066;49.474;11.106;2023-08-30T09:51:42;19.10;95.10
46356;DHT22;32066;49.474;11.106;2023-08-30T09:54:15;19.00;95.40
46356;DHT22;32066;49.474;11.106;2023-08-30T09:56:45;19.10;95.50
46356;DHT22;32066;49.474;11.106;2023-08-30T09:59:18;19.00;95.30
46356;DHT22;32066;49.474;11.106;2023-08-30T10:01:47;19.10;95.50
46356;DHT22;32066;49.474;11.106;2023-08-30T10:04:21;19.10;95.70
46356;DHT22;32066;49.474;11.106;2023-08-30T10:06:50;19.30;95.70
46356;DHT22;32066;49.474;11.106;2023-08-30T10:09:21;19.30;94.90
46356;DHT22;32066;49.474;11.106;2023-08-30T10:11:53;19.30;94.80
46356;DHT22;32066;49.474;11.106;2023-08-30T10:14:22;19.40;94.90
46356;DHT22;32066;49.474;11.106;2023-08-30T10:16:51;19.40;94.50
46356;DHT22;32066;49.474;11.106;2023-08-30T10:19:27;19.50;94.80
46356;DHT22;32066;49.474;11.106;2023-08-30T10:22:01;19.50;94.40
46356;DHT22;32066;49.474;11.106;2023-08-30T10:24:32;19.50;94.20
46356;DHT22;32066;49.474;11.106;2023-08-30T10:27:05;19.40;94.60
46356;DHT22;32066;49.474;11.106;2023-08-30T10:29:37;19.40;94.40
46356;DHT22;32066;49.474;11.106;2023-08-30T10:32:07;19.40;94.30
46356;DHT22;32066;49.474;11.106;2023-08-30T10:34:38;19.50;94.30
46356;DHT22;32066;49.474;11.106;2023-08-30T10:37:09;19.50;94.60
46356;DHT22;32066;49.474;11.106;2023-08-30T10:42:09;19.50;94.00
46356;DHT22;32066;49.474;11.106;2023-08-30T10:44:47;19.60;94.30
46356;DHT22;32066;49.474;11.106;2023-08-30T10:47:20;19.60;93.80
46356;DHT22;32066;49.474;11.106;2023-08-30T10:49:53;19.60;94.00
46356;DHT22;32066;49.474;11.106;2023-08-30T10:52:22;19.80;94.30
46356;DHT22;32066;49.474;11.106;2023-08-30T10:54:51;20.00;94.20
46356;DHT22;32066;49.474;11.106;2023-08-30T10:57:23;20.10;94.00
46356;DHT22;32066;49.474;11.106;2023-08-30T11:00:08;20.20;93.20
46356;DHT22;32066;49.474;11.106;2023-08-30T11:02:43;20.30;93.50
46356;DHT22;32066;49.474;11.106;2023-08-30T11:05:15;20.30;92.70
46356;DHT22;32066;49.474;11.106;2023-08-30T11:07:44;20.20;92.60
46356;DHT22;32066;49.474;11.106;2023-08-30T11:10:14;20.10;93.20
46356;DHT22;32066;49.474;11.106;2023-08-30T11:12:44;20.10;93.00
46356;DHT22;32066;49.474;11.106;2023-08-30T11:15:15;20.20;93.10
46356;DHT22;32066;49.474;11.106;2023-08-30T11:17:44;20.30;92.70
46356;DHT22;32066;49.474;11.106;2023-08-30T11:20:17;20.30;92.40
46356;DHT22;32066;49.474;11.106;2023-08-30T11:22:47;20.20;92.40
46356;DHT22;32066;49.474;11.106;2023-08-30T11:25:17;20.20;92.70
46356;DHT22;32066;49.474;11.106;2023-08-30T11:27:46;20.30;92.80
46356;DHT22;32066;49.474;11.106;2023-08-30T11:30:15;20.30;92.60
46356;DHT22;32066;49.474;11.106;2023-08-30T11:32:46;20.40;92.60
46356;DHT22;32066;49.474;11.106;2023-08-30T11:35:19;20.50;92.20
46356;DHT22;32066;49.474;11.106;2023-08-30T11:37:50;20.40;92.10
46356;DHT22;32066;49.474;11.106;2023-08-30T11:40:19;20.60;91.90
46356;DHT22;32066;49.474;11.106;2023-08-30T11:42:48;20.60;91.80
46356;DHT22;32066;49.474;11.106;2023-08-30T11:45:18;20.60;92.10
46356;DHT22;32066;49.474;11.106;2023-08-30T11:47:47;20.60;91.60
46356;DHT22;32066;49.474;11.106;2023-08-30T11:50:19;20.50;91.70
46356;DHT22;32066;49.474;11.106;2023-08-30T11:52:48;20.40;91.70
46356;DHT22;32066;49.474;11.106;2023-08-30T11:55:17;20.40;91.80
46356;DHT22;32066;49.474;11.106;2023-08-30T11:57:48;20.40;91.70
46356;DHT22;32066;49.474;11.106;2023-08-30T12:00:19;20.40;91.90
46356;DHT22;32066;49.474;11.106;2023-08-30T12:02:48;20.30;91.90
46356;DHT22;32066;49.474;11.106;2023-08-30T12:05:19;20.30;92.40
46356;DHT22;32066;49.474;11.106;2023-08-30T12:07:48;20.30;92.40
46356;DHT22;32066;49.474;11.106;2023-08-30T12:10:18;20.30;92.40
46356;DHT22;32066;49.474;11.106;2023-08-30T12:12:47;20.20;92.40
46356;DHT22;32066;49.474;11.106;2023-08-30T12:15:16;20.20;92.70
46356;DHT22;32066;49.474;11.106;2023-08-30T12:17:45;20.20;92.70
46356;DHT22;32066;49.474;11.106;2023-08-30T12:20:19;20.30;92.70
46356;DHT22;32066;49.474;11.106;2023-08-30T12:22:49;20.20;92.50
46356;DHT22;32066;49.474;11.106;2023-08-30T12:25:20;20.30;92.60
46356;DHT22;32066;49.474;11.106;2023-08-30T12:27:50;20.20;92.50
46356;DHT22;32066;49.474;11.106;2023-08-30T12:30:18;20.20;92.80
46356;DHT22;32066;49.474;11.106;2023-08-30T12:32:47;20.20;92.80
46356;DHT22;32066;49.474;11.106;2023-08-30T12:35:19;20.20;93.10
46356;DHT22;32066;49.474;11.106;2023-08-30T12:37:47;20.20;93.00
46356;DHT22;32066;49.474;11.106;2023-08-30T12:40:16;20.20;93.00
46356;DHT22;32066;49.474;11.106;2023-08-30T12:42:45;20.20;92.80
46356;DHT22;32066;49.474;11.106;2023-08-30T12:45:14;20.20;92.90
46356;DHT22;32066;49.474;11.106;2023-08-30T12:47:45;20.10;92.40
46356;DHT22;32066;49.474;11.106;2023-08-30T12:50:14;20.00;92.50
46356;DHT22;32066;49.474;11.106;2023-08-30T12:52:45;20.10;92.70
46356;DHT22;32066;49.474;11.106;2023-08-30T12:55:13;20.20;92.90
46356;DHT22;32066;49.474;11.106;2023-08-30T12:57:43;20.20;92.10
46356;DHT22;32066;49.474;11.106;2023-08-30T13:00:13;20.20;92.20
46356;DHT22;32066;49.474;11.106;2023-08-30T13:02:41;20.10;92.70
46356;DHT22;32066;49.474;11.106;2023-08-30T13:05:10;20.20;92.50
46356;DHT22;32066;49.474;11.106;2023-08-30T13:07:39;20.20;91.90
46356;DHT22;32066;49.474;11.106;2023-08-30T13:10:11;20.20;91.90
46356;DHT22;32066;49.474;11.106;2023-08-30T13:12:40;20.20;92.10
46356;DHT22;32066;49.474;11.106;2023-08-30T13:15:09;20.10;92.10
46356;DHT22;32066;49.474;11.106;2023-08-30T13:17:38;20.10;92.00
46356;DHT22;32066;49.474;11.106;2023-08-30T13:20:08;20.10;92.00
46356;DHT22;32066;49.474;11.106;2023-08-30T13:22:37;20.20;92.10
46356;DHT22;32066;49.474;11.106;2023-08-30T13:25:07;20.10;92.10
46356;DHT22;32066;49.474;11.106;2023-08-30T13:27:38;20.20;92.40
46356;DHT22;32066;49.474;11.106;2023-08-30T13:30:07;20.20;92.00
46356;DHT22;32066;49.474;11.106;2023-08-30T13:32:36;20.30;91.90
46356;DHT22;32066;49.474;11.106;2023-08-30T13:35:05;20.30;91.90
46356;DHT22;32066;49.474;11.106;2023-08-30T13:37:34;20.30;91.60
46356;DHT22;32066;49.474;11.106;2023-08-30T13:40:03;20.40;91.40
46356;DHT22;32066;49.474;11.106;2023-08-30T13:42:32;20.40;91.10
46356;DHT22;32066;49.474;11.106;2023-08-30T13:45:04;20.40;91.20
46356;DHT22;32066;49.474;11.106;2023-08-30T13:47:35;20.50;91.30
46356;DHT22;32066;49.474;11.106;2023-08-30T13:50:04;20.50;91.10
46356;DHT22;32066;49.474;11.106;2023-08-30T13:52:33;20.50;91.60
46356;DHT22;32066;49.474;11.106;2023-08-30T13:55:02;20.50;90.70
46356;DHT22;32066;49.474;11.106;2023-08-30T13:57:30;20.40;91.30
46356;DHT22;32066;49.474;11.106;2023-08-30T13:59:59;20.40;91.10
46356;DHT22;32066;49.474;11.106;2023-08-30T14:02:35;20.40;91.00
46356;DHT22;32066;49.474;11.106;2023-08-30T14:05:05;20.40;91.20
46356;DHT22;32066;49.474;11.106;2023-08-30T14:07:34;20.40;91.40
46356;DHT22;32066;49.474;11.106;2023-08-30T14:10:03;20.40;91.90
46356;DHT22;32066;49.474;11.106;2023-08-30T14:12:32;20.50;92.30
46356;DHT22;32066;49.474;11.106;2023-08-30T14:15:01;20.50;92.50
46356;DHT22;32066;49.474;11.106;2023-08-30T14:17:30;20.60;92.30
46356;DHT22;32066;49.474;11.106;2023-08-30T14:20:02;20.60;92.30
46356;DHT22;32066;49.474;11.106;2023-08-30T14:22:32;20.50;91.80
46356;DHT22;32066;49.474;11.106;2023-08-30T14:25:02;20.60;91.70
46356;DHT22;32066;49.474;11.106;2023-08-30T14:27:30;20.50;91.90
46356;DHT22;32066;49.474;11.106;2023-08-30T14:29:59;20.50;92.10
46356;DHT22;32066;49.474;11.106;2023-08-30T14:32:28;20.40;92.10
46356;DHT22;32066;49.474;11.106;2023-08-30T14:34:57;20.50;92.20
46356;DHT22;32066;49.474;11.106;2023-08-30T14:37:28;20.50;91.90
46356;DHT22;32066;49.474;11.106;2023-08-30T14:39:57;20.60;91.70
46356;DHT22;32066;49.474;11.106;2023-08-30T14:42:26;20.70;91.60
46356;DHT22;32066;49.474;11.106;2023-08-30T14:44:54;20.70;91.50
46356;DHT22;32066;49.474;11.106;2023-08-30T14:47:23;20.70;91.60
46356;DHT22;32066;49.474;11.106;2023-08-30T14:49:52;20.60;91.20
46356;DHT22;32066;49.474;11.106;2023-08-30T14:52:20;20.60;91.40
46356;DHT22;32066;49.474;11.106;2023-08-30T14:54:52;20.60;91.40
46356;DHT22;32066;49.474;11.106;2023-08-30T14:57:20;20.60;91.40
46356;DHT22;32066;49.474;11.106;2023-08-30T14:59:50;20.60;91.40
46356;DHT22;32066;49.474;11.106;2023-08-30T15:02:19;20.70;91.30
46356;DHT22;32066;49.474;11.106;2023-08-30T15:04:48;20.80;91.30
46356;DHT22;32066;49.474;11.106;2023-08-30T15:07:16;20.90;91.10
46356;DHT22;32066;49.474;11.106;2023-08-30T15:09:45;20.90;91.00
46356;DHT22;32066;49.474;11.106;2023-08-30T15:12:16;21.00;90.30
46356;DHT22;32066;49.474;11.106;2023-08-30T15:14:45;21.00;88.70
46356;DHT22;32066;49.474;11.106;2023-08-30T15:17:14;21.00;88.30
46356;DHT22;32066;49.474;11.106;2023-08-30T15:19:42;20.90;89.40
46356;DHT22;32066;49.474;11.106;2023-08-30T15:22:11;21.00;89.10
46356;DHT22;32066;49.474;11.106;2023-08-30T15:24:40;20.90;89.30
46356;DHT22;32066;49.474;11.106;2023-08-30T15:27:08;20.90;89.70
46356;DHT22;32066;49.474;11.106;2023-08-30T15:29:39;21.00;90.30
46356;DHT22;32066;49.474;11.106;2023-08-30T15:32:08;21.00;89.60
46356;DHT22;32066;49.474;11.106;2023-08-30T15:34:37;21.00;90.00